createdAt,value
2023-01-23T00:01:27.159Z,79.20
2023-01-23T00:03:55.334Z,76.20
2023-01-23T00:06:22.685Z,73.70
2023-01-23T00:08:49.980Z,71.60
2023-01-23T00:11:21.781Z,57.80
2023-01-23T00:13:48.967Z,64.00
2023-01-23T00:16:24.199Z,62.20
2023-01-23T00:18:51.594Z,69.30
2023-01-23T00:21:20.836Z,66.10
2023-01-23T00:23:50.212Z,79.60
2023-01-23T00:26:20.314Z,71.50
2023-01-23T00:28:49.051Z,76.30
2023-01-23T00:31:26.781Z,68.90
2023-01-23T00:33:58.662Z,57.90
2023-01-23T00:36:29.127Z,62.50
2023-01-23T00:38:56.651Z,62.60
2023-01-23T00:41:24.348Z,62.50
2023-01-23T00:43:52.470Z,60.50
2023-01-23T00:46:20.986Z,70.40
2023-01-23T00:48:48.301Z,61.80
2023-01-23T00:51:15.867Z,59.80
2023-01-23T00:53:43.763Z,53.40
2023-01-23T00:56:11.037Z,55.20
2023-01-23T00:58:38.296Z,49.80
2023-01-23T01:01:05.580Z,42.80
2023-01-23T01:03:32.788Z,46.30
2023-01-23T01:06:01.494Z,47.50
2023-01-23T01:08:28.934Z,45.50
2023-01-23T01:10:57.516Z,44.40
2023-01-23T01:13:25.545Z,49.00
2023-01-23T01:15:52.854Z,56.10
2023-01-23T01:18:20.632Z,38.10
2023-01-23T01:20:48.420Z,37.90
2023-01-23T01:23:15.937Z,37.20
2023-01-23T01:25:43.186Z,39.10
2023-01-23T01:28:10.433Z,34.80
2023-01-23T01:30:37.863Z,33.90
2023-01-23T01:33:05.211Z,29.50
2023-01-23T01:35:32.522Z,31.10
2023-01-23T01:38:00.126Z,20.00
2023-01-23T01:40:29.366Z,36.80
2023-01-23T01:42:58.748Z,27.20
2023-01-23T01:46:45.319Z,30.90
2023-01-23T01:49:24.072Z,29.90
2023-01-23T01:51:52.972Z,32.80
2023-01-23T01:54:22.988Z,38.70
2023-01-23T01:56:53.151Z,38.00
2023-01-23T01:59:20.382Z,40.20
2023-01-23T02:01:48.218Z,28.10
2023-01-23T02:04:15.937Z,31.30
2023-01-23T02:06:43.147Z,34.00
2023-01-23T02:09:23.456Z,32.30
2023-01-23T02:11:51.404Z,27.30
2023-01-23T02:14:20.482Z,23.00
2023-01-23T02:16:52.282Z,22.80
2023-01-23T02:19:25.230Z,19.30
2023-01-23T02:21:55.023Z,24.00
2023-01-23T02:25:14.822Z,23.80
2023-01-23T02:27:44.420Z,18.50
2023-01-23T02:30:12.489Z,17.60
2023-01-23T02:32:41.889Z,23.10
2023-01-23T02:35:14.301Z,16.10
2023-01-23T02:37:43.095Z,14.50
2023-01-23T02:40:11.607Z,13.80
2023-01-23T02:42:41.447Z,11.60
2023-01-23T02:45:09.525Z,11.70
2023-01-23T02:47:36.991Z,34.20
2023-01-23T02:50:04.287Z,14.90
2023-01-23T02:52:32.251Z,12.10
2023-01-23T02:54:59.552Z,16.70
2023-01-23T02:57:27.116Z,13.90
2023-01-23T03:00:13.133Z,23.30
2023-01-23T03:02:40.528Z,14.70
2023-01-23T03:05:10.049Z,14.40
2023-01-23T03:07:37.403Z,14.10
2023-01-23T03:10:05.444Z,13.50
2023-01-23T03:12:32.776Z,11.40
2023-01-23T03:15:00.081Z,15.80
2023-01-23T03:17:29.135Z,14.00
2023-01-23T03:19:57.947Z,13.70
2023-01-23T03:22:26.706Z,13.60
2023-01-23T03:24:53.830Z,14.70
2023-01-23T03:27:20.862Z,13.10
2023-01-23T03:30:09.754Z,16.60
2023-01-23T03:32:38.768Z,12.90
2023-01-23T03:35:06.989Z,11.90
2023-01-23T03:37:34.235Z,16.40
2023-01-23T03:40:20.907Z,17.80
2023-01-23T03:42:48.443Z,17.60
2023-01-23T03:45:20.228Z,15.70
2023-01-23T03:47:47.305Z,16.50
2023-01-23T03:50:14.973Z,17.30
2023-01-23T03:52:42.634Z,12.90
2023-01-23T03:55:10.504Z,19.40
2023-01-23T03:57:37.922Z,18.50
2023-01-23T04:00:14.466Z,14.60
2023-01-23T04:02:43.388Z,16.80
2023-01-23T04:05:11.920Z,25.20
2023-01-23T04:07:39.255Z,11.80
2023-01-23T04:10:06.647Z,18.40
2023-01-23T04:12:34.594Z,15.90
2023-01-23T04:15:01.852Z,22.60
2023-01-23T04:17:29.092Z,13.70
2023-01-23T04:19:56.295Z,20.50
2023-01-23T04:22:23.412Z,14.00
2023-01-23T04:24:50.999Z,21.80
2023-01-23T04:27:19.262Z,14.40
2023-01-23T04:29:48.151Z,17.10
2023-01-23T04:32:15.421Z,18.70
2023-01-23T04:34:45.684Z,14.20
2023-01-23T04:37:12.955Z,18.80
2023-01-23T04:39:40.283Z,26.00
2023-01-23T04:42:07.682Z,19.70
2023-01-23T04:44:54.268Z,13.90
2023-01-23T04:47:33.732Z,27.80
2023-01-23T04:50:01.791Z,21.10
2023-01-23T04:52:31.495Z,18.30
2023-01-23T04:54:59.050Z,13.60
2023-01-23T04:57:26.512Z,14.20
2023-01-23T05:00:14.566Z,22.30
2023-01-23T05:02:41.853Z,13.80
2023-01-23T05:05:09.823Z,22.50
2023-01-23T05:07:37.704Z,18.70
2023-01-23T05:10:10.244Z,26.90
2023-01-23T05:12:37.561Z,26.20
2023-01-23T05:15:05.868Z,28.00
2023-01-23T05:17:35.410Z,27.40
2023-01-23T05:20:02.749Z,30.80
2023-01-23T05:22:29.870Z,38.00
2023-01-23T05:24:57.129Z,32.20
2023-01-23T05:27:26.079Z,26.30
2023-01-23T05:29:54.602Z,25.00
2023-01-23T05:32:25.737Z,30.20
2023-01-23T05:35:08.796Z,30.20
2023-01-23T05:37:36.681Z,26.00
2023-01-23T05:40:07.482Z,30.30
2023-01-23T05:46:17.076Z,41.10
2023-01-23T05:48:51.759Z,40.90
2023-01-23T05:51:20.456Z,27.50
2023-01-23T05:53:48.231Z,22.80
2023-01-23T05:56:15.513Z,35.70
2023-01-23T05:59:01.190Z,37.50
2023-01-23T06:01:39.181Z,41.80
2023-01-23T06:04:26.384Z,46.70
2023-01-23T06:07:02.185Z,34.70
2023-01-23T06:09:29.828Z,38.90
2023-01-23T06:11:57.729Z,36.80
2023-01-23T06:14:24.911Z,23.20
2023-01-23T06:16:52.203Z,32.50
2023-01-23T06:19:20.805Z,32.50
2023-01-23T06:21:48.048Z,40.80
2023-01-23T06:24:15.851Z,29.90
2023-01-23T06:26:43.415Z,36.00
2023-01-23T06:29:10.639Z,45.90
2023-01-23T06:31:38.631Z,35.70
2023-01-23T06:34:07.155Z,36.10
2023-01-23T06:36:40.489Z,37.80
2023-01-23T06:39:08.231Z,32.50
2023-01-23T06:41:40.377Z,25.80
2023-01-23T06:44:08.105Z,30.80
2023-01-23T06:46:35.757Z,79.80
2023-01-23T06:49:06.110Z,140.10
2023-01-23T06:51:36.194Z,63.20
2023-01-23T06:54:03.909Z,98.10
2023-01-23T06:56:31.453Z,74.30
2023-01-23T06:58:58.767Z,51.10
2023-01-23T07:01:30.243Z,30.40
2023-01-23T07:04:19.472Z,29.80
2023-01-23T07:06:48.445Z,37.20
2023-01-23T07:09:16.767Z,39.60
2023-01-23T07:11:48.988Z,30.30
2023-01-23T07:14:16.408Z,35.20
2023-01-23T07:16:44.540Z,36.30
2023-01-23T07:19:11.947Z,34.00
2023-01-23T07:21:39.600Z,35.90
2023-01-23T07:24:07.096Z,46.40
2023-01-23T07:26:34.206Z,29.30
2023-01-23T07:29:01.366Z,37.90
2023-01-23T07:31:28.834Z,37.50
2023-01-23T07:33:56.038Z,36.90
2023-01-23T07:36:23.477Z,50.50
2023-01-23T07:38:50.656Z,29.30
2023-01-23T07:41:17.822Z,39.80
2023-01-23T07:43:45.090Z,50.80
2023-01-23T07:46:12.300Z,35.10
2023-01-23T07:48:39.932Z,36.30
2023-01-23T07:51:07.269Z,37.50
2023-01-23T07:53:34.856Z,35.20
2023-01-23T07:56:06.046Z,41.90
2023-01-23T07:58:33.160Z,36.70
2023-01-23T08:01:00.787Z,41.10
2023-01-23T08:03:30.404Z,37.30
2023-01-23T08:05:57.731Z,37.70
2023-01-23T08:08:25.121Z,50.40
2023-01-23T08:10:52.325Z,52.00
2023-01-23T08:13:19.544Z,35.80
2023-01-23T08:15:46.806Z,35.90
2023-01-23T08:18:14.055Z,43.90
2023-01-23T08:20:41.404Z,31.10
2023-01-23T08:23:08.637Z,42.20
2023-01-23T08:25:38.402Z,45.70
2023-01-23T08:28:05.683Z,54.90
2023-01-23T08:30:33.209Z,36.90
2023-01-23T08:33:00.849Z,40.00
2023-01-23T08:35:28.356Z,57.80
2023-01-23T08:37:56.020Z,43.60
2023-01-23T08:40:23.629Z,32.80
2023-01-23T08:42:51.240Z,39.30
2023-01-23T08:45:18.748Z,41.70
2023-01-23T08:47:46.323Z,42.80
2023-01-23T08:50:13.728Z,48.50
2023-01-23T08:52:41.131Z,48.90
2023-01-23T08:55:09.281Z,58.90
2023-01-23T08:57:36.916Z,36.50
2023-01-23T09:00:04.859Z,34.00
2023-01-23T09:02:32.251Z,42.30
2023-01-23T09:04:59.415Z,59.30
2023-01-23T09:07:26.647Z,38.20
2023-01-23T09:09:55.323Z,38.30
2023-01-23T09:12:22.497Z,36.00
2023-01-23T09:14:50.047Z,49.10
2023-01-23T09:17:17.253Z,46.10
2023-01-23T09:19:44.439Z,49.80
2023-01-23T09:22:11.914Z,44.40
2023-01-23T09:24:39.107Z,43.70
2023-01-23T09:27:06.595Z,37.40
2023-01-23T09:29:34.114Z,44.30
2023-01-23T09:32:02.233Z,46.60
2023-01-23T09:34:29.994Z,44.20
2023-01-23T09:36:57.203Z,55.60
2023-01-23T09:39:24.832Z,39.20
2023-01-23T09:41:52.033Z,46.00
2023-01-23T09:44:22.150Z,40.70
2023-01-23T09:46:56.309Z,42.80
2023-01-23T09:49:53.516Z,45.40
2023-01-23T09:52:22.864Z,34.20
2023-01-23T09:55:15.615Z,37.30
2023-01-23T09:57:55.112Z,42.00
2023-01-23T10:00:32.911Z,40.80
2023-01-23T10:03:00.862Z,33.50
2023-01-23T10:05:44.247Z,30.60
2023-01-23T10:08:17.639Z,31.90
2023-01-23T10:11:08.295Z,38.60
2023-01-23T10:14:00.744Z,58.10
2023-01-23T10:16:49.807Z,36.30
2023-01-23T10:19:30.282Z,47.90
2023-01-23T10:22:23.176Z,33.00
2023-01-23T10:24:52.468Z,51.50
2023-01-23T10:27:44.583Z,45.40
2023-01-23T10:30:21.866Z,35.80
2023-01-23T10:32:56.400Z,37.70
2023-01-23T10:36:05.108Z,39.70
2023-01-23T10:38:43.910Z,41.10
2023-01-23T10:41:13.937Z,33.40
2023-01-23T10:43:42.255Z,39.20
2023-01-23T10:46:17.318Z,37.60
2023-01-23T10:48:49.002Z,41.00
2023-01-23T10:51:29.728Z,27.40
2023-01-23T10:54:06.313Z,32.10
2023-01-23T10:56:34.517Z,31.30
2023-01-23T10:59:02.208Z,34.40
2023-01-23T11:01:31.493Z,32.80
2023-01-23T11:04:27.787Z,32.60
2023-01-23T11:07:18.141Z,33.90
2023-01-23T11:10:08.824Z,33.90
2023-01-23T11:12:46.854Z,31.30
2023-01-23T11:15:14.175Z,31.20
2023-01-23T11:17:41.403Z,29.60
2023-01-23T11:20:25.093Z,24.80
2023-01-23T11:23:11.127Z,25.80
2023-01-23T11:25:40.393Z,25.80
2023-01-23T11:28:20.896Z,28.80
2023-01-23T11:30:48.652Z,30.10
2023-01-23T11:33:25.178Z,24.20
2023-01-23T11:36:00.572Z,24.00
2023-01-23T11:38:31.288Z,33.20
2023-01-23T11:40:58.851Z,27.70
2023-01-23T11:43:26.042Z,29.60
2023-01-23T11:46:08.504Z,22.20
2023-01-23T11:48:54.330Z,27.80
2023-01-23T11:51:28.507Z,26.30
2023-01-23T11:54:38.198Z,33.90
2023-01-23T11:57:12.171Z,30.90
2023-01-23T12:00:01.604Z,25.30
2023-01-23T12:02:47.709Z,41.80
2023-01-23T12:05:33.814Z,42.90
2023-01-23T12:08:22.775Z,41.70
2023-01-23T12:11:13.974Z,40.20
2023-01-23T12:13:56.405Z,37.30
2023-01-23T12:16:29.422Z,30.20
2023-01-23T12:19:27.945Z,40.10
2023-01-23T12:22:05.906Z,40.50
2023-01-23T12:25:02.300Z,30.80
2023-01-23T12:27:44.004Z,28.70
2023-01-23T12:30:48.667Z,29.80
2023-01-23T12:33:54.576Z,25.80
2023-01-23T12:37:05.747Z,28.10
2023-01-23T12:39:35.044Z,21.70
2023-01-23T12:42:18.199Z,29.20
2023-01-23T12:45:02.271Z,26.50
2023-01-23T12:47:43.206Z,26.10
2023-01-23T12:50:22.674Z,27.60
2023-01-23T12:52:53.425Z,24.90
2023-01-23T12:55:23.516Z,35.10
2023-01-23T12:57:59.957Z,23.00
2023-01-23T13:01:05.081Z,26.40
2023-01-23T13:04:07.214Z,28.70
2023-01-23T13:06:40.585Z,24.20
2023-01-23T13:09:17.935Z,27.40
2023-01-23T13:12:19.950Z,26.50
2023-01-23T13:15:10.188Z,30.30
2023-01-23T13:17:46.518Z,25.80
2023-01-23T13:21:14.325Z,22.00
2023-01-23T13:23:41.734Z,25.20
2023-01-23T13:26:23.370Z,25.60
2023-01-23T13:28:55.639Z,33.30
2023-01-23T13:31:50.753Z,24.30
2023-01-23T13:34:18.101Z,27.80
2023-01-23T13:36:49.235Z,27.70
2023-01-23T13:39:16.803Z,24.00
2023-01-23T13:41:48.012Z,20.30
2023-01-23T13:44:40.796Z,19.90
2023-01-23T14:24:53.801Z,58.00
2023-01-23T14:27:44.455Z,71.80
2023-01-23T14:30:20.245Z,91.00
2023-01-23T14:32:47.674Z,68.90
2023-01-23T14:35:19.389Z,53.00
2023-01-23T14:37:46.787Z,61.00
2023-01-23T14:40:27.670Z,64.90
2023-01-23T14:43:03.208Z,104.60
2023-01-23T14:45:33.561Z,163.30
2023-01-23T14:48:06.898Z,119.80
2023-01-23T14:50:34.910Z,67.50
2023-01-23T14:53:07.591Z,53.40
2023-01-23T14:55:37.034Z,95.50
2023-01-23T14:58:04.754Z,59.80
2023-01-23T15:00:31.918Z,84.50
2023-01-23T15:02:59.156Z,68.50
2023-01-23T15:05:29.559Z,43.80
2023-01-23T15:08:01.591Z,32.00
2023-01-23T15:10:35.887Z,35.20
2023-01-23T15:13:05.415Z,29.10
2023-01-23T15:15:33.568Z,28.50
2023-01-23T15:18:01.534Z,24.90
2023-01-23T15:20:29.242Z,25.20
2023-01-23T15:22:56.759Z,28.00
2023-01-23T15:25:31.634Z,46.20
2023-01-23T15:27:59.139Z,42.50
2023-01-23T15:30:35.891Z,47.70
2023-01-23T15:33:07.521Z,44.20
2023-01-23T15:35:35.402Z,36.10
2023-01-23T15:38:06.687Z,29.90
2023-01-23T15:40:38.360Z,25.80
2023-01-23T15:43:11.501Z,27.80
2023-01-23T15:45:39.976Z,29.20
2023-01-23T15:48:08.871Z,32.50
2023-01-23T15:50:37.806Z,43.10
2023-01-23T15:53:11.264Z,49.90
2023-01-23T15:55:40.312Z,41.50
2023-01-23T15:58:18.874Z,45.20
2023-01-23T16:00:47.842Z,44.80
2023-01-23T16:03:16.487Z,58.40
2023-01-23T16:05:44.955Z,42.20
2023-01-23T16:08:19.522Z,42.00
2023-01-23T16:10:48.569Z,37.10
2023-01-23T16:13:17.522Z,33.30
2023-01-23T16:15:46.467Z,33.70
2023-01-23T16:18:15.123Z,34.30
2023-01-23T16:20:44.586Z,28.80
2023-01-23T16:23:31.182Z,27.10
2023-01-23T16:26:04.882Z,36.40
2023-01-23T16:28:34.294Z,35.60
2023-01-23T16:31:03.390Z,30.70
2023-01-23T16:33:32.184Z,30.70
2023-01-23T16:36:01.052Z,33.80
2023-01-23T16:38:30.525Z,37.90
2023-01-23T16:41:00.042Z,54.00
2023-01-23T16:43:28.631Z,46.70
2023-01-23T16:45:57.942Z,48.00
2023-01-23T16:48:27.934Z,62.40
2023-01-23T16:51:04.275Z,58.60
2023-01-23T16:53:41.432Z,70.30
2023-01-23T16:56:24.219Z,56.50
2023-01-23T16:58:53.588Z,71.30
2023-01-23T17:01:23.122Z,71.80
2023-01-23T17:03:57.146Z,75.40
2023-01-23T17:06:26.026Z,72.60
2023-01-23T17:08:54.531Z,74.50
2023-01-23T17:11:47.391Z,68.80
2023-01-23T17:14:21.469Z,76.20
2023-01-23T17:16:50.025Z,83.40
2023-01-23T17:19:30.211Z,77.00
2023-01-23T17:21:59.786Z,79.90
2023-01-23T17:24:28.677Z,75.00
2023-01-23T17:26:57.720Z,68.00
2023-01-23T17:29:26.438Z,71.30
2023-01-23T17:31:55.057Z,74.20
2023-01-23T17:34:24.707Z,76.40
2023-01-23T17:36:54.713Z,83.30
2023-01-23T17:39:23.141Z,81.40
2023-01-23T17:41:53.064Z,77.20
2023-01-23T17:44:21.996Z,79.60
2023-01-23T17:46:55.085Z,79.20
2023-01-23T17:49:30.268Z,77.40
2023-01-23T17:52:00.910Z,59.60
2023-01-23T17:54:30.020Z,54.30
2023-01-23T17:57:00.743Z,68.00
2023-01-23T17:59:29.476Z,55.40
2023-01-23T18:01:58.122Z,53.50
2023-01-23T18:04:29.126Z,37.30
2023-01-23T18:06:58.109Z,40.40
2023-01-23T18:09:27.037Z,60.40
2023-01-23T18:11:56.106Z,52.10
2023-01-23T18:14:30.850Z,46.80
2023-01-23T18:16:59.767Z,39.40
2023-01-23T18:19:31.427Z,35.40
2023-01-23T18:22:00.288Z,30.10
2023-01-23T18:24:30.670Z,33.50
2023-01-23T18:27:19.483Z,37.60
2023-01-23T18:29:52.207Z,34.10
2023-01-23T18:32:30.082Z,36.30
2023-01-23T18:35:30.968Z,36.10
2023-01-23T18:38:11.692Z,27.90
2023-01-23T18:40:52.311Z,31.30
2023-01-23T18:43:26.729Z,26.30
2023-01-23T18:45:56.546Z,26.60
2023-01-23T18:48:26.095Z,34.40
2023-01-23T18:51:21.797Z,29.00
2023-01-23T18:54:21.353Z,28.00
2023-01-23T18:56:58.489Z,24.80
2023-01-23T18:59:49.686Z,24.80
2023-01-23T19:02:31.118Z,32.10
2023-01-23T19:05:14.025Z,34.10
2023-01-23T19:07:43.695Z,33.50
2023-01-23T19:10:20.784Z,33.80
2023-01-23T19:12:51.010Z,33.50
2023-01-23T19:15:31.385Z,33.90
2023-01-23T19:18:06.912Z,38.70
2023-01-23T19:20:56.418Z,36.10
2023-01-23T19:23:42.844Z,31.50
2023-01-23T19:26:15.131Z,31.30
2023-01-23T19:28:43.975Z,35.10
2023-01-23T19:31:32.522Z,38.20
2023-01-23T19:34:01.869Z,39.30
2023-01-23T19:36:32.235Z,47.80
2023-01-23T19:39:03.359Z,53.30
2023-01-23T19:41:41.155Z,45.50
2023-01-23T19:44:14.020Z,61.90
2023-01-23T19:46:44.148Z,54.70
2023-01-23T19:49:12.833Z,55.00
2023-01-23T19:51:41.760Z,56.20
2023-01-23T19:54:12.814Z,53.70
2023-01-23T19:56:41.419Z,52.80
2023-01-23T19:59:10.290Z,59.80
2023-01-23T20:01:45.747Z,56.30
2023-01-23T20:04:16.108Z,46.20
2023-01-23T20:06:45.793Z,43.10
2023-01-23T20:09:17.853Z,38.90
2023-01-23T20:11:47.328Z,36.20
2023-01-23T20:14:15.919Z,40.00
2023-01-23T20:16:44.605Z,38.10
2023-01-23T20:19:14.851Z,35.40
2023-01-23T20:21:43.297Z,39.10
2023-01-23T20:24:11.995Z,35.20
2023-01-23T20:26:41.181Z,37.30
2023-01-23T20:29:10.813Z,48.80
2023-01-23T20:31:39.270Z,43.20
2023-01-23T20:34:07.778Z,40.80
2023-01-23T20:36:36.459Z,46.40
2023-01-23T20:39:06.104Z,53.20
2023-01-23T20:41:34.922Z,54.60
2023-01-23T20:44:03.876Z,52.00
2023-01-23T20:46:32.474Z,63.00
2023-01-23T20:49:01.997Z,106.00
2023-01-23T20:51:30.754Z,70.80
2023-01-23T20:54:00.371Z,69.10
2023-01-23T20:56:30.054Z,60.80
2023-01-23T20:59:17.519Z,48.50
2023-01-23T21:02:04.777Z,59.60
2023-01-23T21:04:36.494Z,52.60
2023-01-23T21:07:05.224Z,37.20
2023-01-23T21:09:35.218Z,43.40
2023-01-23T21:12:03.824Z,39.80
2023-01-23T21:14:32.335Z,38.20
2023-01-23T21:17:01.311Z,39.60
2023-01-23T21:19:30.111Z,34.10
2023-01-23T21:21:58.721Z,34.10
2023-01-23T21:24:27.628Z,35.70
2023-01-23T21:26:56.015Z,33.40
2023-01-23T21:29:24.890Z,29.30
2023-01-23T21:31:53.727Z,31.70
2023-01-23T21:34:23.875Z,24.80
2023-01-23T21:36:52.969Z,43.80
2023-01-23T21:39:21.561Z,30.30
2023-01-23T21:41:50.056Z,28.60
2023-01-23T21:44:18.521Z,30.30
2023-01-23T21:46:47.166Z,24.30
2023-01-23T21:49:15.698Z,35.70
2023-01-23T21:51:45.122Z,33.60
2023-01-23T21:54:13.542Z,36.30
2023-01-23T21:56:41.994Z,40.20
2023-01-23T21:59:11.263Z,39.30
2023-01-23T22:01:42.830Z,70.70
2023-01-23T22:04:13.609Z,53.90
2023-01-23T22:06:43.750Z,36.50
2023-01-23T22:09:17.339Z,29.50
2023-01-23T22:14:15.372Z,23.80
2023-01-23T22:16:49.168Z,27.80
2023-01-23T22:21:47.369Z,20.80
2023-01-23T22:24:16.109Z,26.00
2023-01-23T22:26:44.652Z,29.10
2023-01-23T22:29:14.078Z,23.70
2023-01-23T22:31:42.902Z,26.70
2023-01-23T22:34:11.662Z,23.10
2023-01-23T22:36:40.379Z,23.40
2023-01-23T22:39:08.910Z,22.20
2023-01-23T22:41:37.321Z,17.20
2023-01-23T22:44:06.164Z,20.30
2023-01-23T22:46:35.283Z,30.70
2023-01-23T22:49:04.105Z,30.80
2023-01-23T22:51:32.528Z,27.60
2023-01-23T22:54:01.114Z,22.70
2023-01-23T22:56:29.974Z,26.00
2023-01-23T22:59:01.296Z,25.40
2023-01-23T23:01:30.326Z,24.40
2023-01-23T23:03:59.787Z,21.70
2023-01-23T23:06:28.653Z,31.10
2023-01-23T23:08:58.247Z,19.50
2023-01-23T23:11:27.335Z,25.00
2023-01-23T23:13:56.519Z,22.60
2023-01-23T23:16:27.387Z,25.90
2023-01-23T23:18:56.630Z,22.90
2023-01-23T23:21:30.576Z,27.90
2023-01-23T23:24:00.479Z,23.00
2023-01-23T23:26:30.950Z,27.50
2023-01-23T23:29:02.557Z,27.50
2023-01-23T23:31:32.459Z,24.40
2023-01-23T23:34:01.688Z,24.10
2023-01-23T23:36:30.379Z,27.60
2023-01-23T23:38:58.966Z,32.10
2023-01-23T23:41:27.405Z,27.50
2023-01-23T23:43:59.112Z,24.30
2023-01-23T23:46:27.778Z,26.30
2023-01-23T23:48:56.271Z,25.90
2023-01-23T23:51:29.423Z,28.20
2023-01-23T23:53:57.863Z,25.40
2023-01-23T23:56:28.623Z,28.70
2023-01-23T23:58:56.964Z,26.80
